Time;durP1;ratioP1;P1;durP2;ratioP2;P2;SDS_P1;SDS_P2;PMS_P1;PMS_P2;Temp;Humidity;BMP_temperature;BMP_pressure;BME280_temperature;BME280_humidity;BME280_pressure;Samples;Min_cycle;Max_cycle;Signal;HPM_P1;HPM_P2
2024/01/13 00:02:22;;;;;;;113.78;45.22;;;0.80;99.90;;;;;;6207370;23;20013;-65
2024/01/13 00:04:48;;;;;;;91.97;42.37;;;0.80;99.90;;;;;;6208131;23;20011;-64
2024/01/13 00:07:13;;;;;;;101.80;42.77;;;0.80;99.90;;;;;;6207246;23;20244;-65
2024/01/13 00:09:39;;;;;;;109.53;43.63;;;0.80;99.90;;;;;;6207350;23;20267;-66
2024/01/13 00:12:05;;;;;;;93.83;41.97;;;0.80;99.90;;;;;;6207086;23;20495;-65
2024/01/13 00:14:30;;;;;;;97.50;42.08;;;0.80;99.90;;;;;;6206704;23;20005;-73
2024/01/13 00:16:56;;;;;;;107.77;43.73;;;0.80;99.90;;;;;;6207379;23;20047;-68
2024/01/13 00:19:23;;;;;;;102.93;41.65;;;0.80;99.90;;;;;;6206860;23;20055;-73
2024/01/13 00:21:48;;;;;;;108.05;44.67;;;0.90;99.90;;;;;;6207013;23;20012;-68
2024/01/13 00:24:14;;;;;;;103.15;43.40;;;0.90;99.90;;;;;;6207223;23;20797;-69
2024/01/13 00:26:40;;;;;;;103.80;45.37;;;0.80;99.90;;;;;;6206991;23;20001;-72
2024/01/13 00:29:06;;;;;;;105.45;42.75;;;0.80;99.90;;;;;;6205085;23;20015;-71
2024/01/13 00:31:31;;;;;;;106.10;42.30;;;0.80;99.90;;;;;;6206999;23;20017;-70
2024/01/13 00:33:57;;;;;;;101.20;43.63;;;0.80;99.90;;;;;;6207385;23;20028;-68
2024/01/13 00:36:23;;;;;;;113.27;46.23;;;0.90;99.90;;;;;;6207678;23;20108;-67
2024/01/13 00:38:48;;;;;;;115.60;47.10;;;0.80;99.90;;;;;;6207248;23;21229;-73
2024/01/13 00:41:14;;;;;;;108.27;46.90;;;0.90;99.90;;;;;;6207006;23;20341;-73
2024/01/13 00:43:39;;;;;;;111.10;44.42;;;0.90;99.90;;;;;;6206551;23;20441;-73
2024/01/13 00:46:05;;;;;;;97.97;43.30;;;0.90;99.90;;;;;;6206444;23;20790;-71
2024/01/13 00:48:31;;;;;;;106.22;45.15;;;0.90;99.90;;;;;;6206585;23;20012;-67
2024/01/13 00:50:56;;;;;;;105.57;44.65;;;0.80;99.90;;;;;;6206678;23;20004;-65
2024/01/13 00:53:22;;;;;;;113.83;46.50;;;0.80;99.90;;;;;;6205380;23;20055;-67
2024/01/13 00:55:48;;;;;;;111.25;47.05;;;0.80;99.90;;;;;;6207005;23;20232;-69
2024/01/13 00:58:13;;;;;;;101.35;46.00;;;0.80;99.90;;;;;;6206657;23;20009;-66
2024/01/13 01:00:39;;;;;;;109.20;44.23;;;0.80;99.90;;;;;;6206786;23;20011;-65
2024/01/13 01:03:04;;;;;;;109.10;44.87;;;0.80;99.90;;;;;;6207034;23;20270;-65
2024/01/13 01:05:30;;;;;;;103.53;44.47;;;0.80;99.90;;;;;;6207075;23;20008;-65
2024/01/13 01:07:56;;;;;;;108.77;43.70;;;0.80;99.90;;;;;;6206710;23;20004;-66
2024/01/13 01:10:21;;;;;;;100.47;44.00;;;0.80;99.90;;;;;;6205321;23;20553;-65
2024/01/13 01:12:47;;;;;;;110.83;45.07;;;0.80;99.90;;;;;;6206456;23;20012;-73
2024/01/13 01:15:12;;;;;;;101.53;43.45;;;0.80;99.90;;;;;;6206503;23;20059;-73
2024/01/13 01:17:38;;;;;;;103.80;45.67;;;0.80;99.90;;;;;;6206694;23;20024;-71
2024/01/13 01:20:04;;;;;;;102.72;43.50;;;0.80;99.90;;;;;;6208730;23;20341;-71
2024/01/13 01:22:30;;;;;;;121.88;46.55;;;0.80;99.90;;;;;;6207919;23;20062;-65
2024/01/13 01:24:56;;;;;;;109.87;45.70;;;0.80;99.90;;;;;;6206477;23;20040;-65
2024/01/13 01:27:21;;;;;;;108.82;45.78;;;0.80;99.90;;;;;;6207492;23;20389;-71
2024/01/13 01:29:47;;;;;;;115.88;47.83;;;0.80;99.90;;;;;;6206603;23;20475;-73
2024/01/13 01:32:13;;;;;;;110.73;48.90;;;0.80;99.90;;;;;;6206737;23;20392;-69
2024/01/13 01:34:38;;;;;;;112.60;47.80;;;0.90;99.90;;;;;;6206382;23;20012;-70
2024/01/13 01:37:04;;;;;;;120.30;46.73;;;0.90;99.90;;;;;;6206718;23;20012;-67
2024/01/13 01:39:30;;;;;;;118.20;47.17;;;0.90;99.90;;;;;;6204851;23;20510;-68
2024/01/13 01:41:56;;;;;;;110.35;45.90;;;0.90;99.90;;;;;;6203626;23;20061;-72
2024/01/13 01:44:22;;;;;;;107.28;45.67;;;0.80;99.90;;;;;;6204597;23;20008;-72
2024/01/13 01:46:49;;;;;;;105.55;46.10;;;0.80;99.90;;;;;;6204897;23;20004;-73
2024/01/13 01:49:17;;;;;;;96.72;43.30;;;0.80;99.90;;;;;;6204617;23;20008;-72
2024/01/13 01:51:43;;;;;;;110.18;45.00;;;0.80;99.90;;;;;;6204515;23;20428;-71
2024/01/13 01:54:10;;;;;;;111.97;46.33;;;0.80;99.90;;;;;;6228569;23;20008;-66
2024/01/13 01:56:37;;;;;;;125.43;47.78;;;0.80;99.90;;;;;;6204240;23;20080;-68
2024/01/13 01:59:03;;;;;;;120.30;48.38;;;0.80;99.90;;;;;;6204541;23;20008;-65
2024/01/13 02:01:30;;;;;;;114.57;46.90;;;0.80;99.90;;;;;;6204926;23;20641;-65
2024/01/13 02:03:57;;;;;;;116.68;48.15;;;0.90;99.90;;;;;;6204526;23;20040;-66
2024/01/13 02:06:24;;;;;;;121.30;49.20;;;0.90;99.90;;;;;;6204501;23;20075;-68
2024/01/13 02:08:49;;;;;;;;;;;0.90;99.90;;;;;;6203920;23;20012;-67
2024/01/13 02:11:15;;;;;;;112.70;45.90;;;0.90;99.90;;;;;;6204848;23;19907;-70
2024/01/13 02:13:43;;;;;;;117.05;48.30;;;0.80;99.90;;;;;;6204555;23;20000;-64
2024/01/13 02:16:10;;;;;;;121.00;46.40;;;0.90;99.90;;;;;;6204172;23;20004;-65
2024/01/13 02:18:35;;;;;;;100.32;45.38;;;0.80;99.90;;;;;;6204682;23;20090;-73
2024/01/13 02:21:01;;;;;;;113.25;48.35;;;0.80;99.90;;;;;;6204162;23;20372;-74
2024/01/13 02:23:27;;;;;;;113.30;45.42;;;0.80;99.90;;;;;;6204831;23;20380;-74
2024/01/13 02:25:52;;;;;;;107.77;46.17;;;0.80;99.90;;;;;;6203850;23;20005;-71
2024/01/13 02:28:18;;;;;;;107.38;46.20;;;0.80;99.90;;;;;;6205373;23;20236;-70
2024/01/13 02:30:44;;;;;;;113.33;47.37;;;0.80;99.90;;;;;;6204839;23;20008;-65
2024/01/13 02:33:10;;;;;;;114.20;48.70;;;0.80;99.90;;;;;;6204709;23;20236;-68
2024/01/13 02:35:35;;;;;;;115.25;48.67;;;0.80;99.90;;;;;;6204702;23;20031;-70
2024/01/13 02:38:01;;;;;;;123.03;49.28;;;0.80;99.90;;;;;;6201952;23;20506;-72
2024/01/13 02:40:27;;;;;;;111.38;48.42;;;0.80;99.90;;;;;;6204487;23;20001;-70
2024/01/13 02:42:52;;;;;;;121.37;49.20;;;0.80;99.90;;;;;;6203187;23;20025;-71
2024/01/13 02:45:18;;;;;;;119.67;49.87;;;0.90;99.90;;;;;;6204961;23;20581;-74
2024/01/13 02:47:45;;;;;;;111.20;47.80;;;0.80;99.90;;;;;;6204719;23;20015;-70
2024/01/13 02:50:13;;;;;;;113.20;48.85;;;0.80;99.90;;;;;;6204590;23;20004;-74
2024/01/13 02:52:40;;;;;;;111.85;47.10;;;0.80;99.90;;;;;;6204822;23;20594;-73
2024/01/13 02:55:06;;;;;;;109.05;48.45;;;0.80;99.90;;;;;;6202860;23;20012;-73
2024/01/13 02:57:32;;;;;;;;;;;0.80;99.90;;;;;;6205263;23;19996;-74
2024/01/13 02:59:57;;;;;;;111.20;48.03;;;0.80;99.90;;;;;;6204091;23;19904;-68
2024/01/13 03:02:23;;;;;;;106.70;47.57;;;0.80;99.90;;;;;;6204984;23;20344;-65
2024/01/13 03:04:48;;;;;;;125.77;52.40;;;0.80;99.90;;;;;;6204676;23;20569;-65
2024/01/13 03:07:14;;;;;;;123.67;51.70;;;0.80;99.90;;;;;;6204109;23;20232;-64
2024/01/13 03:09:40;;;;;;;121.72;49.83;;;0.80;99.90;;;;;;6205343;23;20009;-63
2024/01/13 03:12:06;;;;;;;118.75;50.65;;;0.80;99.90;;;;;;6205769;23;20095;-64
2024/01/13 03:14:32;;;;;;;;;;;0.80;99.90;;;;;;6206453;23;20111;-70
2024/01/13 03:16:57;;;;;;;110.93;47.95;;;0.80;99.90;;;;;;6205216;23;19900;-68
2024/01/13 03:19:23;;;;;;;120.87;52.53;;;0.80;99.90;;;;;;6206086;23;20095;-73
2024/01/13 03:21:48;;;;;;;106.60;48.10;;;0.80;99.90;;;;;;6205599;23;20000;-73
2024/01/13 03:24:14;;;;;;;120.33;50.73;;;0.80;99.90;;;;;;6205792;23;20041;-72
2024/01/13 03:26:39;;;;;;;114.83;50.40;;;0.80;99.90;;;;;;6205656;23;20228;-69
2024/01/13 03:29:05;;;;;;;118.28;48.97;;;0.80;99.90;;;;;;6254328;22;20005;-72
2024/01/13 03:31:31;;;;;;;113.23;48.43;;;0.80;99.90;;;;;;6205143;23;20062;-72
2024/01/13 03:33:56;;;;;;;120.00;49.77;;;0.80;99.90;;;;;;6205529;23;19997;-68
2024/01/13 03:36:22;;;;;;;115.73;48.70;;;0.80;99.90;;;;;;6205409;23;20565;-65
2024/01/13 03:38:47;;;;;;;125.63;53.60;;;0.70;99.90;;;;;;6204982;23;20004;-67
2024/01/13 03:41:17;;;;;;;116.07;48.93;;;0.80;99.90;;;;;;6205622;23;20247;-69
2024/01/13 03:43:43;;;;;;;120.22;51.95;;;0.80;99.90;;;;;;6205304;23;20016;-70
2024/01/13 03:46:08;;;;;;;125.32;50.53;;;0.80;99.90;;;;;;6205624;23;20000;-71
2024/01/13 03:48:34;;;;;;;122.17;51.00;;;0.80;99.90;;;;;;6206412;23;20015;-71
2024/01/13 03:51:00;;;;;;;118.90;50.73;;;0.80;99.90;;;;;;6207543;23;20238;-72
2024/01/13 03:53:25;;;;;;;124.07;54.07;;;0.80;99.90;;;;;;6207959;23;20004;-70
2024/01/13 03:55:51;;;;;;;121.82;48.83;;;0.70;99.90;;;;;;6206707;23;20244;-73
2024/01/13 03:58:17;;;;;;;117.83;51.90;;;0.80;99.90;;;;;;6207579;23;20080;-73
2024/01/13 04:00:42;;;;;;;115.57;49.67;;;0.80;99.90;;;;;;6206841;23;20314;-72
2024/01/13 04:03:08;;;;;;;120.07;52.47;;;0.80;99.90;;;;;;6206375;23;20008;-66
2024/01/13 04:05:34;;;;;;;124.35;51.22;;;0.70;99.90;;;;;;6206969;23;20008;-67
2024/01/13 04:08:00;;;;;;;132.05;54.53;;;0.70;99.90;;;;;;6207191;23;20008;-66
2024/01/13 04:10:26;;;;;;;120.00;52.22;;;0.80;99.90;;;;;;6206755;23;20017;-71
2024/01/13 04:12:51;;;;;;;123.90;51.80;;;0.70;99.90;;;;;;6207203;23;20078;-64
2024/01/13 04:15:17;;;;;;;119.07;52.37;;;0.80;99.90;;;;;;6207163;23;20004;-64
2024/01/13 04:17:43;;;;;;;126.90;51.00;;;0.80;99.90;;;;;;6206816;23;20449;-65
2024/01/13 04:20:08;;;;;;;119.17;49.93;;;0.80;99.90;;;;;;6207285;23;20004;-65
2024/01/13 04:22:34;;;;;;;114.72;48.40;;;0.80;99.90;;;;;;6207028;23;20104;-65
2024/01/13 04:25:00;;;;;;;122.33;49.37;;;0.80;99.90;;;;;;6206688;23;20058;-69
2024/01/13 04:27:25;;;;;;;113.90;46.63;;;0.70;99.90;;;;;;6207272;23;20319;-73
2024/01/13 04:29:51;;;;;;;108.60;48.33;;;0.80;99.90;;;;;;6206406;23;20013;-73
2024/01/13 04:32:16;;;;;;;116.88;50.63;;;0.80;99.90;;;;;;6206537;23;20012;-73
2024/01/13 04:34:42;;;;;;;125.97;50.50;;;0.80;99.90;;;;;;6206574;23;20067;-73
2024/01/13 04:37:08;;;;;;;129.07;54.97;;;0.70;99.90;;;;;;6205088;23;20005;-73
2024/01/13 04:39:33;;;;;;;117.32;53.92;;;0.80;99.90;;;;;;6206983;23;20005;-66
2024/01/13 04:41:59;;;;;;;117.40;49.38;;;0.80;99.90;;;;;;6205161;23;20012;-67
2024/01/13 04:44:24;;;;;;;128.53;52.80;;;0.70;99.90;;;;;;6207122;23;20709;-65
2024/01/13 04:46:50;;;;;;;126.50;50.77;;;0.80;99.90;;;;;;6206393;23;20004;-67
2024/01/13 04:49:16;;;;;;;118.63;49.35;;;0.70;99.90;;;;;;6206289;23;20421;-67
2024/01/13 04:51:41;;;;;;;111.50;48.43;;;0.80;99.90;;;;;;6206581;23;20005;-65
2024/01/13 04:54:07;;;;;;;126.10;51.50;;;0.80;99.90;;;;;;6206439;23;20005;-65
2024/01/13 04:56:33;;;;;;;115.22;50.63;;;0.70;99.90;;;;;;6206768;23;20811;-64
2024/01/13 04:58:58;;;;;;;107.65;49.38;;;0.70;99.90;;;;;;6206575;23;20368;-65
2024/01/13 05:01:24;;;;;;;114.18;50.33;;;0.70;99.90;;;;;;6206445;23;20005;-71
2024/01/13 05:03:50;;;;;;;122.67;52.73;;;0.70;99.90;;;;;;6206468;23;20012;-71
2024/01/13 05:06:15;;;;;;;127.03;52.13;;;0.70;99.90;;;;;;6206915;23;20232;-74
2024/01/13 05:08:42;;;;;;;133.82;53.55;;;0.70;99.90;;;;;;6206729;23;20011;-68
2024/01/13 05:11:08;;;;;;;117.72;49.83;;;0.80;99.90;;;;;;6207466;23;20008;-66
2024/01/13 05:13:33;;;;;;;122.03;51.25;;;0.70;99.90;;;;;;6206825;23;20492;-68
2024/01/13 05:15:59;;;;;;;123.97;53.67;;;0.70;99.90;;;;;;6206829;23;20028;-70
2024/01/13 05:18:26;;;;;;;127.57;51.55;;;0.70;99.90;;;;;;6206385;23;20505;-69
2024/01/13 05:20:51;;;;;;;117.00;49.20;;;0.70;99.90;;;;;;6206077;23;20004;-70
2024/01/13 05:23:17;;;;;;;113.28;48.28;;;0.70;99.90;;;;;;6206002;23;20017;-68
2024/01/13 05:25:43;;;;;;;115.33;48.83;;;0.60;99.90;;;;;;6206158;23;20007;-72
2024/01/13 05:28:09;;;;;;;118.13;49.28;;;0.60;99.90;;;;;;6206032;23;20008;-71
2024/01/13 05:30:35;;;;;;;111.03;49.05;;;0.60;99.90;;;;;;6204585;23;20009;-70
2024/01/13 05:33:04;;;;;;;107.57;46.92;;;0.60;99.90;;;;;;6205143;23;20012;-73
2024/01/13 05:35:29;;;;;;;120.25;51.90;;;0.60;99.90;;;;;;6204959;23;20080;-70
2024/01/13 05:37:55;;;;;;;112.47;49.47;;;0.60;99.90;;;;;;6205934;23;20043;-73
2024/01/13 05:40:21;;;;;;;116.00;47.70;;;0.60;99.90;;;;;;6206004;23;20000;-72
2024/01/13 05:42:46;;;;;;;116.38;49.17;;;0.60;99.90;;;;;;6205746;23;20080;-71
2024/01/13 05:45:12;;;;;;;122.88;50.45;;;0.50;99.90;;;;;;6205539;23;20513;-71
2024/01/13 05:47:38;;;;;;;117.13;50.95;;;0.60;99.90;;;;;;6204896;23;20004;-69
2024/01/13 05:50:04;;;;;;;114.70;49.73;;;0.50;99.90;;;;;;6204725;23;20020;-65
2024/01/13 05:52:30;;;;;;;110.25;49.88;;;0.50;99.90;;;;;;6204927;23;20005;-72
2024/01/13 05:54:56;;;;;;;113.10;52.45;;;0.50;99.90;;;;;;6205386;23;20015;-66
2024/01/13 05:57:21;;;;;;;117.50;50.72;;;0.40;99.90;;;;;;6204615;23;19997;-65
2024/01/13 05:59:47;;;;;;;117.85;48.78;;;0.40;99.90;;;;;;6204280;23;20008;-71
2024/01/13 06:02:13;;;;;;;119.07;50.03;;;0.40;99.90;;;;;;6203174;23;20409;-69
2024/01/13 06:04:39;;;;;;;;;;;0.40;99.90;;;;;;6205471;23;20079;-68
2024/01/13 06:07:05;;;;;;;118.28;49.17;;;0.50;99.90;;;;;;6204956;23;20214;-65
2024/01/13 06:09:31;;;;;;;;;;;0.40;99.90;;;;;;6204794;23;20066;-67
2024/01/13 06:11:57;;;;;;;120.93;48.42;;;0.40;99.90;;;;;;6254829;22;19903;-71
2024/01/13 06:14:22;;;;;;;117.67;50.53;;;0.30;99.90;;;;;;6205322;23;20404;-69
2024/01/13 06:16:48;;;;;;;123.43;51.03;;;0.40;99.90;;;;;;6204365;23;19996;-67
2024/01/13 06:19:14;;;;;;;117.13;52.03;;;0.40;99.90;;;;;;6204609;23;20012;-65
2024/01/13 06:21:43;;;;;;;125.38;50.65;;;0.40;99.90;;;;;;6202481;23;19996;-67
2024/01/13 06:24:12;;;;;;;105.20;48.88;;;0.40;99.90;;;;;;6202914;23;20023;-66
2024/01/13 06:26:39;;;;;;;117.25;50.88;;;0.30;99.90;;;;;;6203775;23;20495;-66
2024/01/13 06:29:05;;;;;;;110.65;50.28;;;0.30;99.90;;;;;;6204511;23;20780;-64
2024/01/13 06:31:31;;;;;;;119.47;51.92;;;0.30;99.90;;;;;;6204589;23;20012;-67
2024/01/13 06:33:57;;;;;;;115.68;49.00;;;0.40;99.90;;;;;;6204825;23;20011;-66
2024/01/13 06:36:23;;;;;;;122.55;53.58;;;0.30;99.90;;;;;;6204475;23;20001;-67
2024/01/13 06:38:48;;;;;;;120.75;50.05;;;0.30;99.90;;;;;;6204173;23;20004;-65
2024/01/13 06:41:15;;;;;;;116.93;49.90;;;0.30;99.90;;;;;;6204528;23;20437;-65
2024/01/13 06:43:40;;;;;;;;;;;0.30;99.90;;;;;;6204519;23;20008;-67
2024/01/13 06:46:09;;;;;;;121.43;50.58;;;0.30;99.90;;;;;;6204489;23;20342;-69
2024/01/13 06:48:34;;;;;;;132.57;52.20;;;0.30;99.90;;;;;;6208603;23;20289;-68
2024/01/13 06:51:00;;;;;;;117.20;51.47;;;0.40;99.90;;;;;;6206232;23;20535;-72
2024/01/13 06:53:26;;;;;;;126.10;51.17;;;0.30;99.90;;;;;;6253376;22;20247;-70
2024/01/13 06:55:51;;;;;;;117.38;50.25;;;0.30;99.90;;;;;;6203476;23;20107;-70
2024/01/13 06:58:17;;;;;;;121.82;51.55;;;0.30;99.90;;;;;;6203271;23;20005;-70
2024/01/13 07:00:43;;;;;;;121.45;50.20;;;0.30;99.90;;;;;;6203489;23;20007;-71
2024/01/13 07:03:08;;;;;;;113.67;51.73;;;0.30;99.90;;;;;;6204134;23;20039;-68
2024/01/13 07:05:34;;;;;;;120.37;52.70;;;0.30;99.90;;;;;;6203459;23;20573;-72
2024/01/13 07:08:00;;;;;;;120.13;50.67;;;0.30;99.90;;;;;;6203872;23;20005;-70
2024/01/13 07:10:29;;;;;;;;;;;0.30;99.90;;;;;;6204619;23;20008;-72
2024/01/13 07:12:54;;;;;;;119.45;50.38;;;0.30;99.90;;;;;;6203579;23;19900;-68
2024/01/13 07:15:20;;;;;;;112.90;51.57;;;0.20;99.90;;;;;;6204036;23;20016;-72
2024/01/13 07:17:45;;;;;;;126.30;56.47;;;0.30;99.90;;;;;;6203497;23;20290;-66
2024/01/13 07:20:11;;;;;;;122.40;55.07;;;0.30;99.90;;;;;;6204201;23;20294;-71
2024/01/13 07:22:37;;;;;;;118.47;52.28;;;0.30;99.90;;;;;;6204192;23;20005;-70
2024/01/13 07:25:03;;;;;;;119.40;53.10;;;0.30;99.90;;;;;;6206418;23;20446;-67
2024/01/13 07:27:29;;;;;;;110.45;50.80;;;0.30;99.90;;;;;;6206366;23;20075;-66
2024/01/13 07:29:55;;;;;;;126.68;52.00;;;0.30;99.90;;;;;;6206307;23;20032;-70
2024/01/13 07:32:21;;;;;;;118.20;50.25;;;0.20;99.90;;;;;;6206715;23;20000;-70
2024/01/13 07:34:46;;;;;;;110.65;48.70;;;0.20;99.90;;;;;;6204304;23;20292;-69
2024/01/13 07:37:12;;;;;;;126.05;51.17;;;0.20;99.90;;;;;;6205758;23;20005;-70
2024/01/13 07:39:38;;;;;;;121.60;52.90;;;0.20;99.90;;;;;;6205769;23;20660;-69
2024/01/13 07:42:04;;;;;;;123.32;50.42;;;0.20;99.90;;;;;;6205288;23;20098;-70
2024/01/13 07:44:29;;;;;;;119.82;52.42;;;0.10;99.90;;;;;;6206454;23;20016;-72
2024/01/13 07:47:00;;;;;;;118.97;51.50;;;0.20;99.90;;;;;;6205870;23;20007;-71
2024/01/13 07:49:30;;;;;;;117.63;50.10;;;0.20;99.90;;;;;;6206275;23;20719;-70
2024/01/13 07:51:56;;;;;;;114.10;50.13;;;0.10;99.90;;;;;;6205500;23;20481;-73
2024/01/13 07:54:22;;;;;;;;;;;0.10;99.90;;;;;;6206716;23;20011;-71
2024/01/13 07:56:49;;;;;;;117.47;47.92;;;0.10;99.90;;;;;;6206124;23;19900;-67
2024/01/13 07:59:16;;;;;;;117.15;50.33;;;0.10;99.90;;;;;;6206761;23;20005;-65
2024/01/13 08:01:41;;;;;;;116.88;49.90;;;0.10;99.90;;;;;;6205826;23;20264;-67
2024/01/13 08:04:07;;;;;;;124.00;49.03;;;0.10;99.90;;;;;;6206284;23;20016;-68
2024/01/13 08:06:33;;;;;;;118.38;50.53;;;0.10;99.90;;;;;;6203928;23;20011;-67
2024/01/13 08:08:59;;;;;;;112.28;49.22;;;0.10;99.90;;;;;;6205839;23;20108;-69
2024/01/13 08:11:25;;;;;;;120.65;50.97;;;0.10;99.90;;;;;;6205510;23;20004;-66
2024/01/13 08:13:50;;;;;;;116.10;51.13;;;0.10;99.90;;;;;;6205610;23;20005;-63
2024/01/13 08:16:16;;;;;;;109.57;48.67;;;0.10;99.90;;;;;;6254503;22;20103;-66
2024/01/13 08:18:42;;;;;;;121.05;49.22;;;0.10;99.90;;;;;;6205484;23;20331;-69
2024/01/13 08:21:08;;;;;;;122.53;49.30;;;0.10;99.90;;;;;;6205897;23;20001;-72
2024/01/13 08:23:34;;;;;;;128.40;51.20;;;0.10;99.90;;;;;;6205337;23;20051;-72
2024/01/13 08:26:01;;;;;;;104.80;47.33;;;0.10;99.90;;;;;;6206219;23;20001;-71
2024/01/13 08:28:26;;;;;;;121.00;49.42;;;0.10;99.90;;;;;;6205967;23;20039;-66
2024/01/13 08:30:52;;;;;;;112.55;48.75;;;0.20;99.90;;;;;;6206162;23;20009;-67
2024/01/13 08:33:18;;;;;;;121.32;50.38;;;0.20;99.90;;;;;;6204370;23;20421;-66
2024/01/13 08:35:43;;;;;;;117.07;49.15;;;0.20;99.90;;;;;;6205548;23;20008;-65
2024/01/13 08:38:09;;;;;;;108.53;48.07;;;0.20;99.90;;;;;;6206131;23;20004;-65
2024/01/13 08:40:35;;;;;;;112.75;50.22;;;0.20;99.90;;;;;;6205768;23;20345;-67
2024/01/13 08:43:02;;;;;;;112.07;49.35;;;0.30;99.90;;;;;;6205251;23;20016;-71
2024/01/13 08:45:33;;;;;;;118.88;48.42;;;0.30;99.90;;;;;;6208027;23;20442;-76
2024/01/13 08:48:00;;;;;;;121.40;50.63;;;0.30;99.90;;;;;;6206405;23;20624;-66
2024/01/13 08:50:26;;;;;;;115.97;47.88;;;0.40;99.90;;;;;;6208116;23;20012;-72
2024/01/13 08:52:54;;;;;;;114.70;48.88;;;0.30;99.90;;;;;;6206670;23;20740;-74
2024/01/13 08:55:21;;;;;;;118.63;48.50;;;0.40;99.90;;;;;;6208185;23;20008;-70
2024/01/13 08:57:47;;;;;;;125.60;51.22;;;0.40;99.90;;;;;;6231115;23;20489;-73
2024/01/13 09:00:13;;;;;;;136.38;56.15;;;0.50;99.90;;;;;;6207956;23;20008;-72
2024/01/13 09:02:39;;;;;;;;;;;0.60;99.90;;;;;;6208105;23;20000;-69
2024/01/13 09:05:09;;;;;;;111.20;45.97;;;0.50;99.90;;;;;;6206195;23;19915;-72
2024/01/13 09:07:36;;;;;;;111.75;47.58;;;0.50;99.90;;;;;;6207047;23;20008;-73
2024/01/13 09:10:02;;;;;;;115.78;51.38;;;0.50;99.90;;;;;;6207251;23;20008;-71
2024/01/13 09:12:28;;;;;;;113.88;49.28;;;0.50;99.90;;;;;;6207839;23;20352;-73
2024/01/13 09:14:54;;;;;;;118.65;49.50;;;0.50;99.90;;;;;;6206384;23;20456;-71
2024/01/13 09:17:19;;;;;;;116.20;47.58;;;0.50;99.90;;;;;;6207090;23;20420;-69
2024/01/13 09:19:45;;;;;;;109.47;47.83;;;0.50;99.90;;;;;;6207161;23;20080;-67
2024/01/13 09:22:11;;;;;;;107.40;46.20;;;0.60;99.90;;;;;;6206616;23;20059;-71
2024/01/13 09:24:36;;;;;;;109.43;47.92;;;0.60;99.90;;;;;;6206707;23;20008;-75
2024/01/13 09:27:02;;;;;;;112.75;49.28;;;0.60;99.90;;;;;;6207127;23;20421;-71
2024/01/13 09:29:28;;;;;;;118.30;48.03;;;0.60;99.90;;;;;;6207219;23;20074;-75
2024/01/13 09:31:53;;;;;;;123.73;50.57;;;0.50;99.90;;;;;;6207434;23;20341;-73
2024/01/13 09:34:22;;;;;;;112.57;47.53;;;0.60;99.90;;;;;;6206801;23;20059;-71
2024/01/13 09:36:47;;;;;;;107.95;48.08;;;0.60;99.90;;;;;;6255577;22;20020;-68
2024/01/13 09:39:14;;;;;;;115.18;49.53;;;0.60;99.90;;;;;;6255241;22;20567;-72
2024/01/13 09:41:47;;;;;;;112.90;49.80;;;0.60;99.90;;;;;;6206775;23;20471;-66
2024/01/13 09:44:24;;;;;;;116.93;47.25;;;0.70;99.90;;;;;;6207025;23;20063;-70
2024/01/13 09:46:51;;;;;;;118.60;49.55;;;0.70;99.90;;;;;;6205148;23;20380;-71
2024/01/13 09:49:18;;;;;;;111.57;47.45;;;0.70;99.90;;;;;;6206711;23;20036;-69
2024/01/13 09:51:49;;;;;;;115.35;48.47;;;0.70;99.90;;;;;;6206416;23;20007;-66
2024/01/13 09:54:24;;;;;;;115.18;47.63;;;0.70;99.90;;;;;;6207691;23;20008;-71
2024/01/13 09:56:51;;;;;;;113.18;49.17;;;0.80;99.90;;;;;;6207422;23;20012;-72
2024/01/13 09:59:19;;;;;;;110.90;48.42;;;0.80;99.90;;;;;;6208119;23;20016;-73
2024/01/13 10:01:45;;;;;;;116.20;48.40;;;0.80;99.90;;;;;;6208203;23;20015;-70
2024/01/13 10:04:12;;;;;;;127.37;54.27;;;0.80;99.90;;;;;;6207738;23;20016;-75
2024/01/13 10:06:39;;;;;;;134.32;56.25;;;0.90;99.90;;;;;;6208207;23;20735;-69
2024/01/13 10:09:05;;;;;;;117.50;50.30;;;0.80;99.90;;;;;;6206441;23;20088;-68
2024/01/13 10:11:31;;;;;;;107.38;47.00;;;0.90;99.90;;;;;;6208383;23;20724;-65
2024/01/13 10:14:01;;;;;;;121.20;50.20;;;0.90;99.90;;;;;;6208010;23;20004;-65
2024/01/13 10:16:29;;;;;;;116.13;49.85;;;1.00;99.90;;;;;;6208707;23;20088;-71
2024/01/13 10:18:58;;;;;;;116.10;48.38;;;1.00;99.90;;;;;;6206347;23;20005;-66
2024/01/13 10:21:23;;;;;;;107.82;46.83;;;1.00;99.90;;;;;;6207891;23;20012;-68
2024/01/13 10:23:51;;;;;;;117.07;48.50;;;0.90;99.90;;;;;;6208059;23;20016;-68
2024/01/13 10:26:17;;;;;;;123.32;48.92;;;1.00;99.90;;;;;;6208293;23;20286;-65
2024/01/13 10:28:43;;;;;;;118.03;47.63;;;1.00;99.90;;;;;;6208216;23;20725;-71
2024/01/13 10:31:09;;;;;;;113.72;48.65;;;1.10;99.90;;;;;;6208041;23;20852;-66
2024/01/13 10:33:35;;;;;;;105.30;47.10;;;1.10;99.90;;;;;;6207740;23;20008;-70
2024/01/13 10:36:01;;;;;;;119.30;47.92;;;1.10;99.90;;;;;;6206895;23;20235;-76
2024/01/13 10:38:30;;;;;;;104.88;46.38;;;1.10;99.90;;;;;;6208609;23;20055;-72
2024/01/13 10:40:57;;;;;;;117.97;49.70;;;1.20;99.90;;;;;;6208415;23;20050;-72
2024/01/13 10:43:24;;;;;;;121.85;49.58;;;1.20;99.90;;;;;;6203889;23;20012;-65
2024/01/13 10:45:54;;;;;;;113.15;49.70;;;1.20;99.90;;;;;;6206731;23;20088;-67
2024/01/13 10:48:43;;;;;;;101.80;46.47;;;1.20;99.90;;;;;;6206489;23;20005;-72
2024/01/13 10:51:15;;;;;;;118.45;50.88;;;1.30;99.90;;;;;;6202664;22;20051;-76
2024/01/13 10:53:42;;;;;;;122.82;50.72;;;1.10;99.90;;;;;;6206618;23;20008;-71
2024/01/13 10:56:08;;;;;;;116.40;49.60;;;1.20;99.90;;;;;;6229684;23;20040;-70
2024/01/13 10:58:35;;;;;;;111.65;48.65;;;1.30;99.90;;;;;;6208207;23;20491;-71
2024/01/13 11:01:01;;;;;;;113.97;49.70;;;1.40;99.90;;;;;;6207234;23;20040;-67
2024/01/13 11:03:28;;;;;;;121.55;50.60;;;1.40;99.90;;;;;;6205435;23;20017;-75
2024/01/13 11:05:53;;;;;;;111.13;47.58;;;1.40;99.90;;;;;;6207076;23;20031;-80
2024/01/13 11:08:20;;;;;;;110.90;49.53;;;1.40;99.90;;;;;;6206118;23;20848;-75
2024/01/13 11:10:47;;;;;;;;;;;1.50;99.90;;;;;;6207163;23;20228;-76
2024/01/13 11:13:29;;;;;;;113.35;48.05;;;1.50;99.90;;;;;;6205227;23;19911;-72
2024/01/13 11:16:08;;;;;;;112.72;48.13;;;1.50;99.90;;;;;;6207088;23;20008;-71
2024/01/13 11:18:38;;;;;;;118.53;50.80;;;1.60;99.90;;;;;;6206813;23;20027;-73
2024/01/13 11:21:05;;;;;;;121.05;48.85;;;1.60;99.90;;;;;;6206949;23;20032;-71
2024/01/13 11:23:40;;;;;;;113.82;49.83;;;1.70;99.90;;;;;;6206357;23;20469;-71
2024/01/13 11:26:07;;;;;;;113.85;48.38;;;1.70;99.90;;;;;;6205854;23;20001;-73
2024/01/13 11:29:02;;;;;;;116.25;48.90;;;1.80;99.90;;;;;;6205921;23;20015;-71
2024/01/13 11:31:31;;;;;;;106.55;46.60;;;1.80;99.90;;;;;;6198901;23;20492;-66
2024/01/13 11:34:04;;;;;;;113.80;49.30;;;1.80;99.90;;;;;;6205555;23;20031;-72
2024/01/13 11:36:33;;;;;;;106.53;49.00;;;1.70;99.90;;;;;;6205258;23;20009;-76
2024/01/13 11:39:01;;;;;;;118.38;47.45;;;1.80;99.90;;;;;;6203980;23;20054;-77
2024/01/13 11:41:36;;;;;;;127.63;49.00;;;1.80;99.90;;;;;;6205015;23;20011;-73
2024/01/13 11:44:01;;;;;;;111.18;46.58;;;1.80;99.90;;;;;;6205918;23;20017;-76
2024/01/13 11:46:27;;;;;;;107.37;47.00;;;1.90;99.90;;;;;;6205126;23;20120;-66
2024/01/13 11:49:01;;;;;;;108.37;49.80;;;1.90;99.90;;;;;;6205919;23;20212;-71
2024/01/13 11:51:57;;;;;;;117.57;51.60;;;1.80;99.90;;;;;;6205675;23;20007;-69
2024/01/13 11:54:23;;;;;;;124.43;49.15;;;1.90;99.90;;;;;;6205837;23;20004;-67
2024/01/13 11:56:49;;;;;;;111.43;47.97;;;1.80;99.90;;;;;;6205764;23;20004;-69
2024/01/13 11:59:16;;;;;;;111.93;48.30;;;1.90;99.90;;;;;;6205866;23;20004;-69
2024/01/13 12:01:42;;;;;;;;;;;1.80;99.90;;;;;;6206392;23;20484;-67
2024/01/13 12:04:08;;;;;;;110.20;45.60;;;1.90;99.90;;;;;;6205641;23;19912;-67
2024/01/13 12:06:34;;;;;;;;;;;2.00;99.90;;;;;;6256166;22;20004;-66
2024/01/13 12:09:00;;;;;;;113.70;47.65;;;1.90;99.90;;;;;;6206364;23;19904;-66
2024/01/13 12:11:27;;;;;;;114.90;47.65;;;1.90;99.90;;;;;;6207728;23;20358;-65
2024/01/13 12:13:52;;;;;;;;;;;2.00;99.90;;;;;;6209211;23;20717;-69
2024/01/13 12:16:18;;;;;;;114.55;46.28;;;2.10;99.90;;;;;;6208784;23;19911;-75
2024/01/13 12:18:47;;;;;;;107.25;46.58;;;2.00;99.90;;;;;;6208408;23;20028;-77
2024/01/13 12:21:14;;;;;;;107.15;46.83;;;2.00;99.90;;;;;;6207981;23;20001;-72
2024/01/13 12:23:43;;;;;;;109.43;46.90;;;2.00;99.90;;;;;;6207692;23;20013;-74
2024/01/13 12:26:08;;;;;;;105.65;48.50;;;2.10;99.90;;;;;;6206141;23;20079;-67
2024/01/13 12:28:35;;;;;;;123.57;50.13;;;2.10;99.90;;;;;;6204432;23;20627;-67